Time;durP1;ratioP1;P1;durP2;ratioP2;P2;SDS_P1;SDS_P2;PMS_P1;PMS_P2;Temp;Humidity;BMP_temperature;BMP_pressure;BME280_temperature;BME280_humidity;BME280_pressure;Samples;Min_cycle;Max_cycle;Signal;HPM_P1;HPM_P2
2023/05/01 00:01:08;;;;;;;9.38;8.55;;;;;;;;;;6064475;23;20014;-80
2023/05/01 00:03:35;;;;;;;8.85;8.05;;;;;;;;;;6066182;23;20045;-79
2023/05/01 00:06:01;;;;;;;9.00;8.13;;;;;;;;;;6040734;23;20019;-79
2023/05/01 00:08:28;;;;;;;10.15;9.23;;;;;;;;;;6040703;23;20018;-79
2023/05/01 00:10:53;;;;;;;9.57;8.65;;;;;;;;;;6038964;23;20383;-78
2023/05/01 00:13:21;;;;;;;9.05;8.18;;;;;;;;;;6065308;23;20010;-79
2023/05/01 00:15:47;;;;;;;10.10;9.20;;;;;;;;;;6066470;23;20018;-79
2023/05/01 00:18:13;;;;;;;9.15;7.95;;;;;;;;;;6066949;23;20074;-79
2023/05/01 00:20:40;;;;;;;8.73;8.10;;;;;;;;;;6017867;23;20111;-79
2023/05/01 00:23:07;;;;;;;8.88;8.20;;;;;;;;;;6040339;23;20019;-79
2023/05/01 00:25:33;;;;;;;8.63;7.22;;;;;;;;;;6068903;23;20039;-80
2023/05/01 00:27:59;;;;;;;8.43;7.82;;;;;;;;;;6067210;23;20017;-78
2023/05/01 00:30:26;;;;;;;8.68;7.72;;;;;;;;;;6065291;23;20018;-80
2023/05/01 00:32:52;;;;;;;9.95;8.95;;;;;;;;;;6040016;23;20472;-79
2023/05/01 00:35:18;;;;;;;9.00;8.25;;;;;;;;;;6068974;23;20007;-80
2023/05/01 00:37:44;;;;;;;8.20;7.55;;;;;;;;;;6071842;23;20428;-80
2023/05/01 00:40:11;;;;;;;8.98;8.27;;;;;;;;;;6047811;23;20018;-81
2023/05/01 00:42:38;;;;;;;9.38;8.57;;;;;;;;;;6046250;23;20019;-79
2023/05/01 00:45:05;;;;;;;9.13;8.35;;;;;;;;;;6070964;23;20062;-80
2023/05/01 00:47:32;;;;;;;9.95;9.13;;;;;;;;;;6048470;23;20416;-80
2023/05/01 00:49:58;;;;;;;7.07;6.57;;;;;;;;;;6046957;23;20050;-80
2023/05/01 00:52:25;;;;;;;8.40;7.80;;;;;;;;;;6045315;23;20034;-80
2023/05/01 00:54:51;;;;;;;7.18;6.57;;;;;;;;;;6043793;23;20067;-80
2023/05/01 00:57:18;;;;;;;7.65;7.05;;;;;;;;;;6032909;23;20019;-79
2023/05/01 00:59:44;;;;;;;7.93;7.32;;;;;;;;;;6060133;23;20030;-79
2023/05/01 01:02:11;;;;;;;7.75;7.10;;;;;;;;;;6082541;23;20018;-79
2023/05/01 01:04:38;;;;;;;8.40;7.80;;;;;;;;;;6021926;23;20014;-79
2023/05/01 01:07:11;;;;;;;7.72;7.20;;;;;;;;;;6044645;23;20015;-80
2023/05/01 01:09:56;;;;;;;8.93;8.15;;;;;;;;;;6069722;23;20023;-79
2023/05/01 01:12:37;;;;;;;8.10;7.45;;;;;;;;;;6044031;23;20113;-79
2023/05/01 01:15:17;;;;;;;7.80;7.07;;;;;;;;;;6043590;23;20019;-81
2023/05/01 01:17:52;;;;;;;7.40;6.65;;;;;;;;;;6042844;23;20018;-79
2023/05/01 01:20:22;;;;;;;6.50;6.03;;;;;;;;;;6066504;23;20404;-79
2023/05/01 01:22:50;;;;;;;6.63;6.13;;;;;;;;;;6018822;23;20022;-79
2023/05/01 01:25:36;;;;;;;6.60;6.10;;;;;;;;;;6067812;23;20010;-78
2023/05/01 01:28:10;;;;;;;7.97;6.05;;;;;;;;;;6043919;23;20047;-80
2023/05/01 01:30:48;;;;;;;5.93;5.43;;;;;;;;;;6020764;23;20367;-78
2023/05/01 01:33:33;;;;;;;6.20;5.70;;;;;;;;;;6041738;23;20019;-79
2023/05/01 01:36:01;;;;;;;6.50;6.00;;;;;;;;;;6041689;23;20290;-82
2023/05/01 01:38:29;;;;;;;6.53;6.13;;;;;;;;;;6067205;23;20463;-80
2023/05/01 01:41:05;;;;;;;5.63;5.22;;;;;;;;;;6018981;23;20070;-81
2023/05/01 01:43:32;;;;;;;6.75;6.30;;;;;;;;;;6042777;23;20384;-79
2023/05/01 01:45:58;;;;;;;7.53;6.82;;;;;;;;;;5995065;23;20019;-79
2023/05/01 01:48:28;;;;;;;8.30;6.45;;;;;;;;;;6042301;23;20066;-81
2023/05/01 01:50:54;;;;;;;7.15;6.43;;;;;;;;;;6079542;23;20026;-80
2023/05/01 01:53:20;;;;;;;11.80;5.85;;;;;;;;;;6028968;23;20015;-80
2023/05/01 01:55:46;;;;;;;5.95;5.47;;;;;;;;;;6023249;23;20021;-80
2023/05/01 01:58:13;;;;;;;5.75;5.35;;;;;;;;;;6042083;23;20105;-79
2023/05/01 02:00:40;;;;;;;6.35;5.70;;;;;;;;;;6041130;23;20077;-79
2023/05/01 02:03:06;;;;;;;5.85;5.45;;;;;;;;;;6017518;23;20010;-78
2023/05/01 02:05:32;;;;;;;5.95;5.53;;;;;;;;;;6041045;23;20014;-78
2023/05/01 02:07:59;;;;;;;5.60;5.20;;;;;;;;;;6067368;23;20359;-79
2023/05/01 02:10:26;;;;;;;5.32;4.93;;;;;;;;;;6041811;23;20483;-79
2023/05/01 02:12:52;;;;;;;5.45;5.05;;;;;;;;;;6018068;23;20029;-79
2023/05/01 02:15:19;;;;;;;4.90;4.50;;;;;;;;;;6081117;23;20015;-81
2023/05/01 02:17:45;;;;;;;4.20;3.85;;;;;;;;;;6057888;23;20015;-81
2023/05/01 02:20:14;;;;;;;4.53;4.22;;;;;;;;;;6078419;23;20066;-81
2023/05/01 02:22:42;;;;;;;3.20;3.00;;;;;;;;;;6075457;23;20023;-81
2023/05/01 02:25:08;;;;;;;3.45;3.15;;;;;;;;;;6074750;23;20021;-79
2023/05/01 02:27:37;;;;;;;5.40;4.90;;;;;;;;;;6003116;23;20372;-81
2023/05/01 02:30:04;;;;;;;5.47;5.07;;;;;;;;;;6081660;23;20038;-82
2023/05/01 02:32:30;;;;;;;5.88;5.47;;;;;;;;;;6060696;23;20046;-80
2023/05/01 02:34:57;;;;;;;6.57;5.97;;;;;;;;;;6063892;23;20135;-80
2023/05/01 02:37:23;;;;;;;5.70;5.30;;;;;;;;;;6090515;23;19994;-80
2023/05/01 02:39:49;;;;;;;5.50;5.10;;;;;;;;;;6059374;23;20030;-83
2023/05/01 02:42:16;;;;;;;5.82;5.43;;;;;;;;;;6100120;23;19994;-82
2023/05/01 02:44:50;;;;;;;5.25;4.90;;;;;;;;;;6123225;23;20022;-82
2023/05/01 02:47:17;;;;;;;4.90;4.60;;;;;;;;;;6092638;23;20010;-79
2023/05/01 02:49:43;;;;;;;4.97;4.57;;;;;;;;;;6075266;23;20034;-81
2023/05/01 02:52:10;;;;;;;7.25;4.50;;;;;;;;;;6097813;23;20066;-82
2023/05/01 02:54:36;;;;;;;5.07;4.60;;;;;;;;;;6048742;23;20018;-83
2023/05/01 02:57:03;;;;;;;5.13;4.78;;;;;;;;;;6067094;23;20066;-82
2023/05/01 02:59:29;;;;;;;4.90;4.60;;;;;;;;;;6093645;23;20014;-83
2023/05/01 03:01:56;;;;;;;4.75;4.35;;;;;;;;;;6087632;23;20024;-81
2023/05/01 03:04:22;;;;;;;5.15;4.85;;;;;;;;;;6050444;23;20479;-81
2023/05/01 03:06:48;;;;;;;5.40;4.88;;;;;;;;;;6059378;23;20019;-81
2023/05/01 03:09:14;;;;;;;4.80;4.50;;;;;;;;;;6062935;23;20070;-81
2023/05/01 03:11:40;;;;;;;4.97;4.68;;;;;;;;;;6106737;23;20030;-82
2023/05/01 03:14:06;;;;;;;5.70;5.30;;;;;;;;;;6077144;23;20014;-82
2023/05/01 03:16:32;;;;;;;5.28;4.97;;;;;;;;;;6106001;23;20045;-82
2023/05/01 03:18:58;;;;;;;5.50;5.00;;;;;;;;;;6115236;23;20017;-79
2023/05/01 03:21:24;;;;;;;4.70;4.40;;;;;;;;;;6118137;23;20041;-81
2023/05/01 03:23:50;;;;;;;4.72;4.43;;;;;;;;;;6119181;23;20014;-83
2023/05/01 03:26:16;;;;;;;4.78;4.47;;;;;;;;;;6117906;23;20014;-82
2023/05/01 03:28:42;;;;;;;4.82;4.53;;;;;;;;;;6069948;23;20018;-81
2023/05/01 03:31:09;;;;;;;4.50;4.20;;;;;;;;;;6071477;23;20026;-84
2023/05/01 03:33:35;;;;;;;3.75;3.55;;;;;;;;;;6123496;23;20003;-83
2023/05/01 03:36:02;;;;;;;3.83;3.60;;;;;;;;;;6075621;23;20002;-83
2023/05/01 03:38:29;;;;;;;3.30;3.13;;;;;;;;;;6075483;23;20038;-84
2023/05/01 03:41:08;;;;;;;4.93;3.97;;;;;;;;;;6123044;23;20071;-83
2023/05/01 03:43:43;;;;;;;3.83;3.53;;;;;;;;;;6119884;23;20072;-81
2023/05/01 03:46:19;;;;;;;3.50;3.30;;;;;;;;;;6117336;23;20021;-80
2023/05/01 03:48:45;;;;;;;3.30;3.13;;;;;;;;;;6090934;23;20062;-81
2023/05/01 03:51:12;;;;;;;3.80;3.60;;;;;;;;;;6122276;23;20053;-83
2023/05/01 03:53:38;;;;;;;6.72;4.00;;;;;;;;;;6122267;23;20009;-82
2023/05/01 03:56:06;;;;;;;4.03;3.67;;;;;;;;;;6097917;23;20019;-82
2023/05/01 03:58:32;;;;;;;4.05;3.85;;;;;;;;;;6098401;23;20002;-83
2023/05/01 04:00:59;;;;;;;3.63;3.42;;;;;;;;;;6099271;23;19999;-81
2023/05/01 04:03:27;;;;;;;3.95;3.53;;;;;;;;;;6049174;23;20042;-85
2023/05/01 04:05:54;;;;;;;3.90;3.70;;;;;;;;;;6090006;23;20038;-85
2023/05/01 04:08:20;;;;;;;4.47;4.28;;;;;;;;;;6120433;23;20009;-79
2023/05/01 04:10:46;;;;;;;4.45;3.88;;;;;;;;;;6114884;23;20018;-80
2023/05/01 04:13:13;;;;;;;6.28;3.70;;;;;;;;;;6116873;23;20021;-82
2023/05/01 04:15:38;;;;;;;4.60;4.40;;;;;;;;;;6121653;23;20014;-82
2023/05/01 04:18:04;;;;;;;4.60;4.30;;;;;;;;;;6147826;23;20020;-82
2023/05/01 04:20:31;;;;;;;4.88;4.57;;;;;;;;;;6100014;23;20025;-80
2023/05/01 04:22:57;;;;;;;5.47;4.50;;;;;;;;;;6145956;23;20088;-82
2023/05/01 04:25:23;;;;;;;4.88;4.53;;;;;;;;;;6119842;23;20018;-82
2023/05/01 04:27:53;;;;;;;4.88;4.57;;;;;;;;;;6119045;23;20010;-81
2023/05/01 04:30:18;;;;;;;5.55;5.15;;;;;;;;;;6094943;23;20013;-81
2023/05/01 04:32:45;;;;;;;4.88;4.57;;;;;;;;;;6118510;23;20022;-81
2023/05/01 04:35:11;;;;;;;5.72;5.22;;;;;;;;;;6094389;23;20054;-80
2023/05/01 04:37:40;;;;;;;7.78;5.30;;;;;;;;;;6096553;23;20018;-81
2023/05/01 04:40:07;;;;;;;5.88;5.55;;;;;;;;;;6071750;23;20036;-82
2023/05/01 04:42:33;;;;;;;6.47;6.07;;;;;;;;;;6094634;23;20032;-82
2023/05/01 04:45:02;;;;;;;6.03;5.63;;;;;;;;;;6066491;23;20017;-82
2023/05/01 04:47:32;;;;;;;6.10;5.70;;;;;;;;;;6114734;23;20017;-83
2023/05/01 04:49:57;;;;;;;6.18;5.63;;;;;;;;;;6143538;23;20423;-80
2023/05/01 04:52:24;;;;;;;6.15;5.75;;;;;;;;;;6116592;23;20032;-83
2023/05/01 04:54:56;;;;;;;6.15;5.75;;;;;;;;;;6097530;23;20017;-82
2023/05/01 04:57:24;;;;;;;6.20;5.80;;;;;;;;;;6095006;23;20045;-82
2023/05/01 04:59:51;;;;;;;5.80;5.50;;;;;;;;;;6112979;23;20014;-81
2023/05/01 05:02:17;;;;;;;6.13;5.72;;;;;;;;;;6140555;23;20017;-81
2023/05/01 05:04:43;;;;;;;6.80;6.30;;;;;;;;;;6107321;23;20069;-83
2023/05/01 05:07:09;;;;;;;6.55;6.05;;;;;;;;;;6106015;23;20014;-82
2023/05/01 05:09:55;;;;;;;5.88;5.40;;;;;;;;;;6143681;23;20005;-83
2023/05/01 05:12:22;;;;;;;6.78;6.18;;;;;;;;;;6102884;23;20077;-82
2023/05/01 05:14:48;;;;;;;6.38;5.78;;;;;;;;;;6128408;23;20001;-81
2023/05/01 05:17:16;;;;;;;5.93;5.43;;;;;;;;;;6128441;23;20005;-82
2023/05/01 05:19:42;;;;;;;5.80;5.40;;;;;;;;;;6099518;23;20033;-81
2023/05/01 05:22:11;;;;;;;5.88;5.47;;;;;;;;;;6094221;23;20018;-79
2023/05/01 05:25:03;;;;;;;5.97;5.10;;;;;;;;;;6076800;23;20020;-79
2023/05/01 05:27:35;;;;;;;5.40;5.00;;;;;;;;;;6078828;23;20354;-79
2023/05/01 05:30:03;;;;;;;5.53;5.10;;;;;;;;;;6076506;23;20014;-78
2023/05/01 05:32:29;;;;;;;4.43;4.13;;;;;;;;;;6100701;23;20423;-79
2023/05/01 05:34:56;;;;;;;4.80;4.40;;;;;;;;;;6099452;23;20049;-79
2023/05/01 05:37:24;;;;;;;5.60;5.20;;;;;;;;;;6072290;23;20029;-80
2023/05/01 05:39:51;;;;;;;5.95;5.32;;;;;;;;;;6102077;23;20028;-81
2023/05/01 05:42:17;;;;;;;5.10;4.70;;;;;;;;;;6074227;23;20017;-78
2023/05/01 05:44:43;;;;;;;6.43;5.95;;;;;;;;;;6099773;23;20009;-81
2023/05/01 05:47:10;;;;;;;5.82;5.43;;;;;;;;;;6108530;23;20014;-81
2023/05/01 05:49:36;;;;;;;6.00;5.20;;;;;;;;;;6078310;23;20014;-80
2023/05/01 05:52:02;;;;;;;5.75;5.35;;;;;;;;;;6100689;23;20041;-81
2023/05/01 05:54:28;;;;;;;5.03;4.68;;;;;;;;;;6078258;23;20523;-79
2023/05/01 05:56:54;;;;;;;5.10;4.80;;;;;;;;;;6123586;23;20018;-79
2023/05/01 05:59:20;;;;;;;5.60;5.20;;;;;;;;;;6097465;23;20014;-79
2023/05/01 06:01:46;;;;;;;4.72;4.43;;;;;;;;;;6097926;23;20017;-78
2023/05/01 06:04:13;;;;;;;5.10;4.80;;;;;;;;;;6098438;23;20025;-82
2023/05/01 06:06:41;;;;;;;5.90;5.50;;;;;;;;;;6102371;23;20054;-81
2023/05/01 06:09:08;;;;;;;6.28;5.80;;;;;;;;;;6100696;23;20018;-80
2023/05/01 06:11:33;;;;;;;6.28;5.68;;;;;;;;;;6073043;23;20046;-78
2023/05/01 06:14:01;;;;;;;5.40;5.10;;;;;;;;;;6098167;23;20331;-76
2023/05/01 06:16:27;;;;;;;7.30;5.82;;;;;;;;;;6096278;23;20454;-78
2023/05/01 06:18:54;;;;;;;5.63;5.22;;;;;;;;;;6097064;23;20363;-77
2023/05/01 06:21:20;;;;;;;5.78;5.28;;;;;;;;;;6073871;23;20135;-79
2023/05/01 06:23:46;;;;;;;5.30;4.90;;;;;;;;;;6124146;23;20014;-79
2023/05/01 06:26:25;;;;;;;5.18;4.88;;;;;;;;;;6076969;23;20014;-81
2023/05/01 06:28:51;;;;;;;5.72;5.30;;;;;;;;;;6098574;23;20126;-81
2023/05/01 06:31:17;;;;;;;5.63;5.18;;;;;;;;;;6096822;23;20018;-79
2023/05/01 06:33:49;;;;;;;6.35;5.70;;;;;;;;;;6096828;23;20127;-79
2023/05/01 06:36:23;;;;;;;5.70;5.13;;;;;;;;;;6122738;23;20010;-80
2023/05/01 06:38:49;;;;;;;4.22;3.92;;;;;;;;;;6096830;23;20412;-78
2023/05/01 06:41:15;;;;;;;3.83;3.63;;;;;;;;;;6096793;23;20017;-78
2023/05/01 06:43:41;;;;;;;4.80;4.50;;;;;;;;;;6072741;23;20466;-78
2023/05/01 06:46:08;;;;;;;3.67;3.47;;;;;;;;;;6097454;23;20025;-78
2023/05/01 06:48:34;;;;;;;5.60;5.20;;;;;;;;;;6099301;23;20014;-79
2023/05/01 06:51:00;;;;;;;5.60;5.15;;;;;;;;;;6126298;23;20021;-79
2023/05/01 06:53:26;;;;;;;5.13;4.63;;;;;;;;;;6074663;23;20017;-81
2023/05/01 06:55:52;;;;;;;4.72;4.32;;;;;;;;;;6098519;23;20347;-78
2023/05/01 06:58:19;;;;;;;5.55;5.13;;;;;;;;;;6096602;23;20013;-76
2023/05/01 07:00:45;;;;;;;5.68;5.18;;;;;;;;;;6072941;23;20097;-77
2023/05/01 07:03:11;;;;;;;4.55;4.15;;;;;;;;;;6097240;23;20463;-78
2023/05/01 07:05:39;;;;;;;5.30;4.97;;;;;;;;;;6122740;23;20049;-75
2023/05/01 07:08:05;;;;;;;5.55;4.72;;;;;;;;;;6122548;23;20077;-75
2023/05/01 07:10:31;;;;;;;5.82;5.15;;;;;;;;;;6124268;23;20014;-77
2023/05/01 07:12:58;;;;;;;5.28;4.80;;;;;;;;;;6096651;23;20026;-76
2023/05/01 07:15:24;;;;;;;5.10;4.70;;;;;;;;;;6096323;23;20009;-74
2023/05/01 07:17:51;;;;;;;5.70;5.30;;;;;;;;;;6122524;23;20025;-76
2023/05/01 07:20:17;;;;;;;5.13;4.82;;;;;;;;;;6125986;23;20014;-82
2023/05/01 07:22:43;;;;;;;5.47;4.88;;;;;;;;;;6098424;23;20042;-81
2023/05/01 07:25:10;;;;;;;5.60;5.13;;;;;;;;;;6101317;23;20028;-80
2023/05/01 07:27:36;;;;;;;7.30;5.22;;;;;;;;;;6100330;23;20051;-82
2023/05/01 07:30:03;;;;;;;4.07;3.88;;;;;;;;;;6075968;23;20013;-80
2023/05/01 07:32:31;;;;;;;5.40;5.00;;;;;;;;;;6124454;23;20084;-80
2023/05/01 07:34:57;;;;;;;4.82;4.43;;;;;;;;;;6076325;23;20482;-81
2023/05/01 07:37:25;;;;;;;5.15;4.85;;;;;;;;;;6099917;23;20018;-81
2023/05/01 07:39:51;;;;;;;4.88;4.47;;;;;;;;;;6125178;23;20366;-81
2023/05/01 07:42:17;;;;;;;4.95;4.55;;;;;;;;;;6075106;23;20073;-80
2023/05/01 07:44:44;;;;;;;4.63;4.20;;;;;;;;;;6125076;23;20014;-80
2023/05/01 07:47:10;;;;;;;6.32;5.03;;;;;;;;;;6134461;23;20018;-81
2023/05/01 07:49:37;;;;;;;7.82;5.15;;;;;;;;;;6103142;23;20092;-80
2023/05/01 07:52:05;;;;;;;6.15;4.05;;;;;;;;;;6141553;23;20103;-80
2023/05/01 07:54:31;;;;;;;5.55;4.45;;;;;;;;;;6118794;23;20018;-82
2023/05/01 07:56:57;;;;;;;4.43;4.13;;;;;;;;;;6117075;23;20010;-81
2023/05/01 07:59:24;;;;;;;4.47;4.18;;;;;;;;;;6140157;23;20013;-82
2023/05/01 08:01:49;;;;;;;4.30;3.90;;;;;;;;;;6098093;23;20057;-82
2023/05/01 08:04:17;;;;;;;5.75;4.35;;;;;;;;;;6143243;23;20099;-82
2023/05/01 08:06:43;;;;;;;5.38;4.80;;;;;;;;;;6095804;23;20022;-81
2023/05/01 08:09:09;;;;;;;5.97;4.13;;;;;;;;;;6093970;23;20014;-81
2023/05/01 08:11:35;;;;;;;5.53;4.05;;;;;;;;;;6132133;23;20041;-81
2023/05/01 08:14:02;;;;;;;5.20;3.72;;;;;;;;;;6106712;23;20053;-81
2023/05/01 08:16:29;;;;;;;4.70;4.30;;;;;;;;;;6106621;23;20010;-82
2023/05/01 08:18:55;;;;;;;11.93;3.75;;;;;;;;;;6133721;23;20351;-82
2023/05/01 08:21:21;;;;;;;6.30;3.47;;;;;;;;;;6108952;23;20014;-81
2023/05/01 08:23:47;;;;;;;4.60;4.20;;;;;;;;;;6117286;23;20033;-81
2023/05/01 08:26:13;;;;;;;4.35;3.95;;;;;;;;;;6090301;23;20022;-77
2023/05/01 08:28:39;;;;;;;6.07;4.40;;;;;;;;;;6114066;23;20041;-80
2023/05/01 08:31:05;;;;;;;3.95;3.75;;;;;;;;;;6129777;23;20120;-81
2023/05/01 08:33:31;;;;;;;4.78;3.53;;;;;;;;;;6135218;23;20014;-83
2023/05/01 08:35:57;;;;;;;8.68;4.13;;;;;;;;;;6136486;23;20021;-79
2023/05/01 08:38:23;;;;;;;5.40;3.33;;;;;;;;;;6122640;23;20367;-79
2023/05/01 08:40:51;;;;;;;5.25;4.32;;;;;;;;;;6049658;23;20018;-80
2023/05/01 08:43:17;;;;;;;4.57;3.67;;;;;;;;;;6097106;23;20017;-80
2023/05/01 08:45:43;;;;;;;4.90;4.50;;;;;;;;;;6074568;23;20025;-82
2023/05/01 08:48:09;;;;;;;4.55;3.67;;;;;;;;;;6130292;23;20407;-82
2023/05/01 08:50:35;;;;;;;4.10;3.78;;;;;;;;;;6082906;23;20022;-82
2023/05/01 08:53:02;;;;;;;5.97;4.20;;;;;;;;;;6112067;23;20052;-81
2023/05/01 08:55:29;;;;;;;5.68;3.97;;;;;;;;;;6056639;23;20010;-82
2023/05/01 08:57:55;;;;;;;6.10;4.40;;;;;;;;;;6084096;23;20497;-80
2023/05/01 09:00:21;;;;;;;4.78;3.50;;;;;;;;;;6122099;23;20017;-77
2023/05/01 09:02:48;;;;;;;4.40;4.10;;;;;;;;;;6095133;23;20097;-78
2023/05/01 09:05:15;;;;;;;5.38;4.15;;;;;;;;;;6122547;23;20462;-78
2023/05/01 09:07:41;;;;;;;5.68;5.10;;;;;;;;;;6097643;23;20467;-79
2023/05/01 09:10:07;;;;;;;4.65;3.92;;;;;;;;;;6125900;23;20021;-83
2023/05/01 09:12:34;;;;;;;3.90;3.60;;;;;;;;;;6134750;23;20040;-80
2023/05/01 09:15:01;;;;;;;6.90;4.07;;;;;;;;;;6097762;23;20014;-77
2023/05/01 09:17:30;;;;;;;4.25;4.00;;;;;;;;;;6126208;23;20486;-78
2023/05/01 09:19:56;;;;;;;4.47;3.55;;;;;;;;;;6143230;23;20030;-83
2023/05/01 09:22:22;;;;;;;5.75;3.97;;;;;;;;;;6113079;23;20041;-83
2023/05/01 09:24:48;;;;;;;4.55;3.67;;;;;;;;;;6138195;23;20018;-83
2023/05/01 09:27:17;;;;;;;6.40;4.78;;;;;;;;;;6138983;23;19998;-82
2023/05/01 09:29:46;;;;;;;4.93;4.13;;;;;;;;;;6093453;23;20014;-83
2023/05/01 09:32:19;;;;;;;5.45;4.97;;;;;;;;;;6093009;23;20022;-83
2023/05/01 09:34:49;;;;;;;9.65;4.22;;;;;;;;;;6090629;23;20104;-82
2023/05/01 09:37:28;;;;;;;4.75;4.35;;;;;;;;;;6090450;23;20017;-81
2023/05/01 09:40:05;;;;;;;7.38;3.67;;;;;;;;;;6092900;23;20014;-83
2023/05/01 09:42:34;;;;;;;8.82;4.40;;;;;;;;;;6117234;23;20020;-83
2023/05/01 09:45:01;;;;;;;7.28;4.57;;;;;;;;;;6093665;23;20017;-82
2023/05/01 09:47:32;;;;;;;4.18;3.80;;;;;;;;;;6093623;23;20029;-83
2023/05/01 09:49:58;;;;;;;5.50;4.05;;;;;;;;;;6142775;23;20419;-82
2023/05/01 09:52:27;;;;;;;8.23;4.35;;;;;;;;;;6142287;23;20029;-81
2023/05/01 09:55:12;;;;;;;3.85;3.55;;;;;;;;;;6144692;23;20021;-81
2023/05/01 09:57:39;;;;;;;4.82;4.30;;;;;;;;;;6143474;23;20013;-80
2023/05/01 10:00:07;;;;;;;5.53;4.05;;;;;;;;;;6145936;23;20077;-82
2023/05/01 10:02:33;;;;;;;3.53;3.22;;;;;;;;;;6117402;23;20018;-82
2023/05/01 10:04:59;;;;;;;2.95;2.75;;;;;;;;;;6140809;23;20025;-82
2023/05/01 10:07:25;;;;;;;4.20;3.78;;;;;;;;;;6115483;23;20046;-82
2023/05/01 10:09:51;;;;;;;3.72;3.42;;;;;;;;;;6144955;23;20021;-83
2023/05/01 10:12:24;;;;;;;4.30;3.88;;;;;;;;;;6118546;23;20141;-83
2023/05/01 10:14:50;;;;;;;7.03;4.07;;;;;;;;;;6143580;23;20021;-83
2023/05/01 10:17:18;;;;;;;2.88;2.70;;;;;;;;;;6143811;23;20041;-83
2023/05/01 10:19:44;;;;;;;2.00;1.90;;;;;;;;;;6142485;23;20021;-82
2023/05/01 10:22:11;;;;;;;2.67;2.58;;;;;;;;;;6143743;23;20051;-83
2023/05/01 10:24:38;;;;;;;3.42;3.20;;;;;;;;;;6144423;23;20267;-83
2023/05/01 10:27:05;;;;;;;3.35;3.05;;;;;;;;;;6171597;23;20037;-83
2023/05/01 10:29:31;;;;;;;3.58;3.13;;;;;;;;;;6148230;23;20525;-82
2023/05/01 10:31:57;;;;;;;6.80;4.00;;;;;;;;;;6147366;23;20048;-83
2023/05/01 10:34:23;;;;;;;3.20;3.00;;;;;;;;;;6144155;23;20398;-83
2023/05/01 10:37:00;;;;;;;4.13;3.42;;;;;;;;;;6170649;23;20031;-81
2023/05/01 10:39:33;;;;;;;5.93;3.30;;;;;;;;;;6170114;23;20017;-82
2023/05/01 10:42:13;;;;;;;3.10;2.90;;;;;;;;;;6168989;23;20017;-83
2023/05/01 10:44:39;;;;;;;5.15;3.28;;;;;;;;;;6094299;23;20021;-82
2023/05/01 10:47:26;;;;;;;3.05;2.78;;;;;;;;;;6113967;23;20010;-81
2023/05/01 10:50:08;;;;;;;5.28;3.70;;;;;;;;;;6173001;23;20018;-83
2023/05/01 10:52:53;;;;;;;2.65;2.55;;;;;;;;;;6098622;23;20021;-83
2023/05/01 10:55:35;;;;;;;3.67;3.42;;;;;;;;;;6134283;23;20071;-82
2023/05/01 10:58:02;;;;;;;4.10;2.78;;;;;;;;;;6159897;23;20014;-80
2023/05/01 11:00:28;;;;;;;4.57;3.53;;;;;;;;;;6156969;23;20509;-81
2023/05/01 11:03:14;;;;;;;2.88;2.67;;;;;;;;;;6164725;23;20037;-81
2023/05/01 11:05:59;;;;;;;3.55;3.28;;;;;;;;;;6119255;23;20017;-81
2023/05/01 11:08:28;;;;;;;3.25;2.95;;;;;;;;;;6163278;23;20013;-81
2023/05/01 11:10:54;;;;;;;4.50;3.55;;;;;;;;;;6163342;23;20013;-82
2023/05/01 11:13:40;;;;;;;6.35;3.72;;;;;;;;;;6135286;23;20009;-81
2023/05/01 11:16:26;;;;;;;4.45;2.88;;;;;;;;;;6136486;23;20014;-81
2023/05/01 11:18:52;;;;;;;12.98;3.17;;;;;;;;;;6163086;23;20016;-82
2023/05/01 11:21:21;;;;;;;8.52;3.83;;;;;;;;;;6164868;23;20072;-81
2023/05/01 11:23:47;;;;;;;3.40;3.20;;;;;;;;;;6111626;23;20021;-81
2023/05/01 11:26:12;;;;;;;14.48;3.97;;;;;;;;;;6140622;23;20009;-82
2023/05/01 11:28:39;;;;;;;3.40;3.20;;;;;;;;;;6167709;23;20009;-83
2023/05/01 11:31:04;;;;;;;4.68;3.22;;;;;;;;;;6175713;23;20017;-82
2023/05/01 11:33:30;;;;;;;3.60;3.30;;;;;;;;;;6152049;23;20041;-82
2023/05/01 11:35:58;;;;;;;4.57;4.05;;;;;;;;;;6123027;23;20020;-82
2023/05/01 11:38:24;;;;;;;5.45;5.03;;;;;;;;;;6177065;23;20105;-81
2023/05/01 11:40:57;;;;;;;6.22;3.85;;;;;;;;;;6181619;23;20093;-82
2023/05/01 11:43:23;;;;;;;3.65;2.90;;;;;;;;;;6181851;23;20341;-81
2023/05/01 11:45:50;;;;;;;2.95;2.33;;;;;;;;;;6155523;23;20112;-80
2023/05/01 11:48:17;;;;;;;9.02;3.83;;;;;;;;;;6179171;23;20024;-82
2023/05/01 11:50:43;;;;;;;3.53;2.70;;;;;;;;;;6174585;23;20014;-81
2023/05/01 11:53:10;;;;;;;2.30;2.20;;;;;;;;;;6147625;23;20029;-82
2023/05/01 11:55:37;;;;;;;3.08;2.88;;;;;;;;;;6175243;23;20010;-82
2023/05/01 11:58:03;;;;;;;2.40;2.30;;;;;;;;;;6173949;23;20018;-81
2023/05/01 12:00:35;;;;;;;2.70;2.47;;;;;;;;;;6170126;23;20013;-82
2023/05/01 12:03:02;;;;;;;5.95;2.35;;;;;;;;;;6167864;23;20064;-81
2023/05/01 12:05:28;;;;;;;3.10;2.85;;;;;;;;;;6117829;23;20025;-82
2023/05/01 12:08:13;;;;;;;2.70;2.55;;;;;;;;;;6167832;23;20020;-82
2023/05/01 12:10:41;;;;;;;2.25;2.15;;;;;;;;;;6161353;23;20017;-80
2023/05/01 12:13:07;;;;;;;2.30;1.83;;;;;;;;;;6133018;23;20290;-81
2023/05/01 12:15:35;;;;;;;2.53;2.42;;;;;;;;;;6135072;23;20072;-81
2023/05/01 12:18:01;;;;;;;2.03;1.92;;;;;;;;;;6134293;23;20040;-81
2023/05/01 12:20:40;;;;;;;2.88;2.47;;;;;;;;;;6133548;23;20028;-82
2023/05/01 12:23:06;;;;;;;3.70;2.28;;;;;;;;;;6136652;23;20009;-81
2023/05/01 12:25:33;;;;;;;1.98;1.75;;;;;;;;;;6160812;23;20024;-82
2023/05/01 12:28:03;;;;;;;4.32;2.42;;;;;;;;;;6136825;23;20009;-81
2023/05/01 12:30:29;;;;;;;1.77;1.67;;;;;;;;;;6134356;23;20021;-81
2023/05/01 12:32:56;;;;;;;1.90;1.80;;;;;;;;;;6135675;23;20097;-80
2023/05/01 12:35:22;;;;;;;2.65;1.80;;;;;;;;;;6162993;23;20013;-81
2023/05/01 12:37:48;;;;;;;1.80;1.80;;;;;;;;;;6116692;23;20483;-81
2023/05/01 12:40:14;;;;;;;1.60;1.60;;;;;;;;;;6140269;23;20019;-80
2023/05/01 12:42:40;;;;;;;1.33;1.23;;;;;;;;;;6165658;23;20010;-81
2023/05/01 12:45:08;;;;;;;1.70;1.60;;;;;;;;;;6166419;23;20009;-81
2023/05/01 12:47:37;;;;;;;2.65;1.60;;;;;;;;;;6169211;23;20564;-81
2023/05/01 12:50:03;;;;;;;1.50;1.50;;;;;;;;;;6176505;23;20013;-80
2023/05/01 12:52:29;;;;;;;2.58;2.38;;;;;;;;;;6151148;23;20077;-79
2023/05/01 12:55:05;;;;;;;1.50;1.40;;;;;;;;;;6155221;23;20009;-79
2023/05/01 12:57:31;;;;;;;1.73;1.70;;;;;;;;;;6181000;23;20017;-78
2023/05/01 12:59:57;;;;;;;1.67;1.67;;;;;;;;;;6153049;23;20048;-80
2023/05/01 13:02:28;;;;;;;1.42;1.42;;;;;;;;;;6174978;23;20028;-81
2023/05/01 13:05:03;;;;;;;1.70;1.60;;;;;;;;;;6140412;23;20041;-80
2023/05/01 13:07:30;;;;;;;1.73;1.73;;;;;;;;;;6139403;23;20026;-81
2023/05/01 13:09:57;;;;;;;2.20;2.10;;;;;;;;;;6142006;23;20009;-81
2023/05/01 13:12:26;;;;;;;2.20;2.10;;;;;;;;;;6112906;23;20035;-80
2023/05/01 13:14:53;;;;;;;2.22;2.13;;;;;;;;;;6139035;23;20015;-80
2023/05/01 13:17:28;;;;;;;2.00;1.90;;;;;;;;;;6135773;23;20013;-80
2023/05/01 13:19:55;;;;;;;2.50;2.40;;;;;;;;;;6133327;23;20394;-80
2023/05/01 13:22:35;;;;;;;2.25;2.15;;;;;;;;;;6136295;23;20468;-81
2023/05/01 13:25:02;;;;;;;2.08;1.98;;;;;;;;;;6158131;23;20020;-78
2023/05/01 13:27:29;;;;;;;1.52;1.42;;;;;;;;;;6103719;23;20021;-78
2023/05/01 13:29:59;;;;;;;2.60;2.13;;;;;;;;;;6153892;23;20014;-79
2023/05/01 13:32:25;;;;;;;2.20;2.10;;;;;;;;;;6128657;23;20104;-78
2023/05/01 13:34:52;;;;;;;2.55;2.28;;;;;;;;;;6131211;23;20029;-78
2023/05/01 13:37:18;;;;;;;3.40;2.25;;;;;;;;;;6128694;23;20013;-78
2023/05/01 13:39:45;;;;;;;2.58;2.47;;;;;;;;;;6153546;23;20540;-77
2023/05/01 13:42:11;;;;;;;3.08;2.90;;;;;;;;;;6154014;23;20477;-76
2023/05/01 13:44:44;;;;;;;2.63;2.40;;;;;;;;;;6126758;23;20079;-77
2023/05/01 13:47:10;;;;;;;3.15;2.95;;;;;;;;;;6103518;23;20013;-78
2023/05/01 13:49:36;;;;;;;2.05;1.95;;;;;;;;;;6153539;23;20510;-78
2023/05/01 13:52:03;;;;;;;2.40;2.22;;;;;;;;;;6153719;23;20025;-77
2023/05/01 13:54:29;;;;;;;2.15;2.05;;;;;;;;;;6153731;23;20236;-77
2023/05/01 13:56:56;;;;;;;3.30;3.05;;;;;;;;;;6128075;23;20138;-78
2023/05/01 13:59:24;;;;;;;2.60;2.40;;;;;;;;;;6128219;23;20013;-79
2023/05/01 14:01:50;;;;;;;2.97;2.78;;;;;;;;;;6127924;23;20630;-77
2023/05/01 14:04:17;;;;;;;2.55;2.45;;;;;;;;;;6127756;23;20013;-77
2023/05/01 14:06:43;;;;;;;2.70;2.53;;;;;;;;;;6153323;23;20028;-76
2023/05/01 14:09:09;;;;;;;2.00;1.90;;;;;;;;;;6153483;23;20427;-76
2023/05/01 14:11:40;;;;;;;3.47;3.17;;;;;;;;;;6153422;23;20025;-76
2023/05/01 14:14:06;;;;;;;3.40;3.20;;;;;;;;;;6103894;23;20013;-76
2023/05/01 14:16:32;;;;;;;2.47;2.30;;;;;;;;;;6078563;23;20025;-76
2023/05/01 14:18:58;;;;;;;3.50;3.22;;;;;;;;;;6153270;23;20083;-75
2023/05/01 14:21:28;;;;;;;3.38;3.17;;;;;;;;;;6153042;23;20026;-75
2023/05/01 14:23:55;;;;;;;4.43;3.65;;;;;;;;;;6153045;23;20013;-76
2023/05/01 14:26:23;;;;;;;3.85;3.33;;;;;;;;;;6127278;23;20041;-75
2023/05/01 14:28:49;;;;;;;2.20;2.10;;;;;;;;;;6152917;23;20043;-75
2023/05/01 14:31:28;;;;;;;3.28;3.08;;;;;;;;;;6127657;23;20498;-75
2023/05/01 14:33:55;;;;;;;3.00;2.80;;;;;;;;;;6104453;23;20154;-75
2023/05/01 14:36:20;;;;;;;3.33;3.03;;;;;;;;;;6153213;23;20042;-76
2023/05/01 14:38:49;;;;;;;3.92;2.80;;;;;;;;;;6127546;23;20020;-76
2023/05/01 14:41:21;;;;;;;2.80;2.60;;;;;;;;;;6155286;23;20010;-79
2023/05/01 14:43:49;;;;;;;1.95;1.90;;;;;;;;;;6109790;23;20462;-79
2023/05/01 14:46:16;;;;;;;2.15;2.05;;;;;;;;;;6111087;23;20024;-78
2023/05/01 14:48:42;;;;;;;3.20;2.90;;;;;;;;;;6134238;23;20450;-78